Time;durP1;ratioP1;P1;durP2;ratioP2;P2;SDS_P1;SDS_P2;PMS_P1;PMS_P2;Temp;Humidity;BMP_temperature;BMP_pressure;BME280_temperature;BME280_humidity;BME280_pressure;Samples;Min_cycle;Max_cycle;Signal;HPM_P1;HPM_P2
2022/03/08 00:01:20;;;;;;;12.30;8.32;;;;;;;;;;5029266;28;20050;-81
2022/03/08 00:03:47;;;;;;;14.25;8.93;;;;;;;;;;5027343;28;20083;-81
2022/03/08 00:06:13;;;;;;;13.35;8.68;;;;;;;;;;5022909;28;20030;-80
2022/03/08 00:08:40;;;;;;;14.23;8.80;;;;;;;;;;5021904;28;20026;-80
2022/03/08 00:11:06;;;;;;;14.38;8.73;;;;;;;;;;5022020;28;20397;-80
2022/03/08 00:13:32;;;;;;;12.57;8.18;;;;;;;;;;5021677;28;20037;-81
2022/03/08 00:15:58;;;;;;;14.60;8.55;;;;;;;;;;5021674;28;20402;-80
2022/03/08 00:18:24;;;;;;;13.55;8.77;;;;;;;;;;5039398;28;20057;-81
2022/03/08 00:20:50;;;;;;;13.15;8.45;;;;;;;;;;5037189;28;20037;-81
2022/03/08 00:23:17;;;;;;;15.10;8.82;;;;;;;;;;5022452;28;20029;-81
2022/03/08 00:25:43;;;;;;;14.48;8.80;;;;;;;;;;5024053;28;20497;-80
2022/03/08 00:28:09;;;;;;;14.20;8.63;;;;;;;;;;5022373;28;20543;-80
2022/03/08 00:30:35;;;;;;;16.02;8.63;;;;;;;;;;5022139;28;20036;-80
2022/03/08 00:33:01;;;;;;;14.82;9.15;;;;;;;;;;5021839;28;20029;-80
2022/03/08 00:35:27;;;;;;;16.00;8.50;;;;;;;;;;5023532;28;20486;-80
2022/03/08 00:37:55;;;;;;;13.30;9.32;;;;;;;;;;5041225;28;20030;-80
2022/03/08 00:40:22;;;;;;;14.15;8.98;;;;;;;;;;5042159;28;20030;-81
2022/03/08 00:42:48;;;;;;;15.45;9.52;;;;;;;;;;5042220;28;20025;-80
2022/03/08 00:45:14;;;;;;;15.32;8.65;;;;;;;;;;5031858;28;20038;-80
2022/03/08 00:47:41;;;;;;;15.25;8.32;;;;;;;;;;5040598;28;20022;-81
2022/03/08 00:50:09;;;;;;;14.57;9.15;;;;;;;;;;5041127;28;20021;-81
2022/03/08 00:52:35;;;;;;;12.30;8.32;;;;;;;;;;5040945;28;20030;-81
2022/03/08 00:55:01;;;;;;;14.70;8.95;;;;;;;;;;5033419;28;20026;-80
2022/03/08 00:57:27;;;;;;;14.43;8.77;;;;;;;;;;5036172;28;20030;-80
2022/03/08 00:59:53;;;;;;;14.88;9.00;;;;;;;;;;5040842;28;20021;-80
2022/03/08 01:02:19;;;;;;;13.52;9.05;;;;;;;;;;5033914;28;20041;-80
2022/03/08 01:04:45;;;;;;;14.80;9.20;;;;;;;;;;5035065;28;20085;-80
2022/03/08 01:07:12;;;;;;;14.32;8.80;;;;;;;;;;5040448;28;20026;-81
2022/03/08 01:09:38;;;;;;;15.07;9.05;;;;;;;;;;5039719;28;20017;-81
2022/03/08 01:12:05;;;;;;;16.83;8.93;;;;;;;;;;5031344;28;20033;-82
2022/03/08 01:14:31;;;;;;;15.77;8.63;;;;;;;;;;5025471;28;20524;-82
2022/03/08 01:16:57;;;;;;;14.23;8.85;;;;;;;;;;5023913;28;20034;-82
2022/03/08 01:19:23;;;;;;;13.65;9.07;;;;;;;;;;5020023;28;20519;-81
2022/03/08 01:21:49;;;;;;;14.52;8.65;;;;;;;;;;5018227;28;20109;-82
2022/03/08 01:24:15;;;;;;;15.38;9.10;;;;;;;;;;5022464;28;20096;-82
2022/03/08 01:26:41;;;;;;;14.95;9.23;;;;;;;;;;5035878;28;20103;-82
2022/03/08 01:29:07;;;;;;;14.82;9.70;;;;;;;;;;5028310;28;20524;-82
2022/03/08 01:31:33;;;;;;;15.65;9.48;;;;;;;;;;5040260;28;20030;-82
2022/03/08 01:33:59;;;;;;;19.08;10.18;;;;;;;;;;5035871;28;20075;-81
2022/03/08 01:36:26;;;;;;;14.77;8.50;;;;;;;;;;5038134;28;20030;-81
2022/03/08 01:38:52;;;;;;;15.45;8.75;;;;;;;;;;5041761;28;20536;-82
2022/03/08 01:41:19;;;;;;;15.00;9.30;;;;;;;;;;5041581;28;20079;-81
2022/03/08 01:43:47;;;;;;;15.60;9.73;;;;;;;;;;5038937;28;20113;-81
2022/03/08 01:46:14;;;;;;;13.63;8.48;;;;;;;;;;5041731;28;20111;-81
2022/03/08 01:48:41;;;;;;;14.40;9.02;;;;;;;;;;5042072;28;20107;-81
2022/03/08 01:51:07;;;;;;;13.50;9.63;;;;;;;;;;5040279;28;20025;-81
2022/03/08 01:53:34;;;;;;;18.27;9.25;;;;;;;;;;5028284;28;20098;-82
2022/03/08 01:56:00;;;;;;;16.02;9.50;;;;;;;;;;5021106;28;20592;-82
2022/03/08 01:58:26;;;;;;;14.15;10.00;;;;;;;;;;5021945;28;20116;-81
2022/03/08 02:00:52;;;;;;;15.90;9.27;;;;;;;;;;5038519;28;20026;-81
2022/03/08 02:03:18;;;;;;;16.25;9.38;;;;;;;;;;5033406;28;20481;-81
2022/03/08 02:05:44;;;;;;;13.45;9.18;;;;;;;;;;5031231;28;20046;-81
2022/03/08 02:08:10;;;;;;;14.05;9.60;;;;;;;;;;5021069;28;20029;-82
2022/03/08 02:10:36;;;;;;;15.15;9.35;;;;;;;;;;5021436;28;20046;-81
2022/03/08 02:13:02;;;;;;;16.08;9.88;;;;;;;;;;5019504;28;20092;-81
2022/03/08 02:15:29;;;;;;;15.77;9.25;;;;;;;;;;5026165;28;20500;-81
2022/03/08 02:17:56;;;;;;;15.98;9.32;;;;;;;;;;5039424;28;20048;-81
2022/03/08 02:20:22;;;;;;;13.80;9.13;;;;;;;;;;5040352;28;20037;-81
2022/03/08 02:22:49;;;;;;;16.83;10.27;;;;;;;;;;5025152;28;20534;-81
2022/03/08 02:25:16;;;;;;;14.15;8.80;;;;;;;;;;5019379;28;20057;-81
2022/03/08 02:27:49;;;;;;;18.92;9.93;;;;;;;;;;5031737;28;20041;-81
2022/03/08 02:30:17;;;;;;;15.10;9.52;;;;;;;;;;5033447;28;20129;-81
2022/03/08 02:32:43;;;;;;;18.08;10.45;;;;;;;;;;5032775;28;20105;-81
2022/03/08 02:35:17;;;;;;;16.08;10.00;;;;;;;;;;5038804;28;20021;-81
2022/03/08 02:37:45;;;;;;;15.63;9.43;;;;;;;;;;5028344;28;20068;-81
2022/03/08 02:40:13;;;;;;;16.63;10.43;;;;;;;;;;5018384;28;20482;-81
2022/03/08 02:42:39;;;;;;;16.30;9.10;;;;;;;;;;5033838;28;20048;-82
2022/03/08 02:45:05;;;;;;;16.67;9.90;;;;;;;;;;5031363;28;20396;-81
2022/03/08 02:47:31;;;;;;;18.10;11.63;;;;;;;;;;5021325;28;20052;-81
2022/03/08 02:49:58;;;;;;;18.13;11.23;;;;;;;;;;5038233;28;20018;-81
2022/03/08 02:52:24;;;;;;;20.35;10.75;;;;;;;;;;5038565;28;20493;-81
2022/03/08 02:54:50;;;;;;;15.27;10.00;;;;;;;;;;5023072;28;20041;-81
2022/03/08 02:57:16;;;;;;;19.88;10.18;;;;;;;;;;5032867;28;20060;-81
2022/03/08 02:59:42;;;;;;;18.25;10.93;;;;;;;;;;5029383;28;20486;-81
2022/03/08 03:02:08;;;;;;;16.23;9.80;;;;;;;;;;5016451;28;20112;-81
2022/03/08 03:04:34;;;;;;;19.00;10.20;;;;;;;;;;5017312;28;20109;-81
2022/03/08 03:07:00;;;;;;;17.63;10.20;;;;;;;;;;5018612;28;20026;-82
2022/03/08 03:09:26;;;;;;;16.63;10.77;;;;;;;;;;5031701;28;20060;-81
2022/03/08 03:11:52;;;;;;;19.27;10.55;;;;;;;;;;5027943;28;20038;-81
2022/03/08 03:14:18;;;;;;;15.27;9.38;;;;;;;;;;5019417;28;20030;-81
2022/03/08 03:16:44;;;;;;;15.52;9.85;;;;;;;;;;5019494;28;20030;-81
2022/03/08 03:19:10;;;;;;;16.98;10.23;;;;;;;;;;5019506;28;20597;-81
2022/03/08 03:21:36;;;;;;;18.40;10.25;;;;;;;;;;5023244;28;20022;-81
2022/03/08 03:24:02;;;;;;;19.15;11.02;;;;;;;;;;5039427;28;20092;-81
2022/03/08 03:26:29;;;;;;;17.73;10.52;;;;;;;;;;5037612;28;20124;-81
2022/03/08 03:28:55;;;;;;;19.48;11.05;;;;;;;;;;5034217;28;20703;-82
2022/03/08 03:31:21;;;;;;;15.65;10.35;;;;;;;;;;5035493;28;20105;-82
2022/03/08 03:33:47;;;;;;;17.65;10.27;;;;;;;;;;5018033;28;20061;-82
2022/03/08 03:36:13;;;;;;;17.98;10.40;;;;;;;;;;5019108;28;20030;-81
2022/03/08 03:38:39;;;;;;;17.40;10.77;;;;;;;;;;5018391;28;20092;-82
2022/03/08 03:41:05;;;;;;;17.85;10.75;;;;;;;;;;5019312;28;20033;-82
2022/03/08 03:43:31;;;;;;;17.08;9.57;;;;;;;;;;5017147;28;20034;-81
2022/03/08 03:45:57;;;;;;;17.05;10.73;;;;;;;;;;5018229;28;20018;-81
2022/03/08 03:48:23;;;;;;;16.00;10.15;;;;;;;;;;5025601;28;20032;-81
2022/03/08 03:50:55;;;;;;;17.42;10.07;;;;;;;;;;5049435;23;20049;-81
2022/03/08 03:53:23;;;;;;;18.35;10.35;;;;;;;;;;5039765;28;20090;-81
2022/03/08 03:56:03;;;;;;;19.77;11.13;;;;;;;;;;5040454;28;20029;-81
2022/03/08 03:58:40;;;;;;;17.25;9.85;;;;;;;;;;5026430;28;20024;-81
2022/03/08 04:01:38;;;;;;;18.67;11.02;;;;;;;;;;5027589;28;20065;-81
2022/03/08 04:04:16;;;;;;;15.70;9.80;;;;;;;;;;5017629;28;20060;-81
2022/03/08 04:06:55;;;;;;;16.38;10.55;;;;;;;;;;5044513;28;20577;-81
2022/03/08 04:09:50;;;;;;;17.13;10.75;;;;;;;;;;5051937;28;20033;-81
2022/03/08 04:12:53;;;;;;;20.92;11.05;;;;;;;;;;5014563;28;20045;-81
2022/03/08 04:15:27;;;;;;;17.45;9.63;;;;;;;;;;5024860;28;20105;-81
2022/03/08 04:20:58;;;;;;;17.90;10.93;;;;;;;;;;4976931;28;20502;-82
2022/03/08 04:23:24;;;;;;;20.65;11.43;;;;;;;;;;4976435;28;20754;-81
2022/03/08 04:25:53;;;;;;;19.73;11.43;;;;;;;;;;4976663;28;20043;-81
2022/03/08 04:28:21;;;;;;;16.98;11.40;;;;;;;;;;4960844;28;20033;-81
2022/03/08 04:30:47;;;;;;;21.27;10.07;;;;;;;;;;4976692;28;20074;-81
2022/03/08 04:33:13;;;;;;;18.90;11.57;;;;;;;;;;4965944;28;20699;-81
2022/03/08 04:35:39;;;;;;;22.98;11.90;;;;;;;;;;4960768;28;20050;-81
2022/03/08 04:38:05;;;;;;;18.17;11.07;;;;;;;;;;4977238;28;20038;-81
2022/03/08 04:40:31;;;;;;;18.60;10.98;;;;;;;;;;4964136;28;20035;-81
2022/03/08 04:42:57;;;;;;;21.45;12.45;;;;;;;;;;4976855;28;20718;-81
2022/03/08 04:45:23;;;;;;;22.30;12.10;;;;;;;;;;4961942;28;20050;-81
2022/03/08 04:47:49;;;;;;;20.30;11.88;;;;;;;;;;4977877;28;20023;-81
2022/03/08 04:50:16;;;;;;;18.75;10.68;;;;;;;;;;4977767;28;20113;-81
2022/03/08 04:52:43;;;;;;;19.98;12.00;;;;;;;;;;4972746;28;20035;-81
2022/03/08 04:55:09;;;;;;;19.55;11.27;;;;;;;;;;4962295;28;20110;-80
2022/03/08 04:57:35;;;;;;;24.13;11.90;;;;;;;;;;4970902;28;20045;-81
2022/03/08 05:00:01;;;;;;;20.58;11.75;;;;;;;;;;5003966;28;20493;-81
2022/03/08 05:02:27;;;;;;;19.05;11.88;;;;;;;;;;5022750;28;20512;-81
2022/03/08 05:04:53;;;;;;;21.90;12.27;;;;;;;;;;5045092;28;20029;-81
2022/03/08 05:07:19;;;;;;;20.27;11.35;;;;;;;;;;5045618;28;20044;-81
2022/03/08 05:09:45;;;;;;;24.20;12.60;;;;;;;;;;5031100;28;20494;-81
2022/03/08 05:12:11;;;;;;;22.40;12.18;;;;;;;;;;5027607;28;20033;-81
2022/03/08 05:14:37;;;;;;;19.83;11.02;;;;;;;;;;5057266;28;20018;-81
2022/03/08 05:17:04;;;;;;;22.27;11.35;;;;;;;;;;5031232;28;20029;-81
2022/03/08 05:19:30;;;;;;;20.92;12.35;;;;;;;;;;5024002;28;20033;-80
2022/03/08 05:21:56;;;;;;;22.35;12.73;;;;;;;;;;5021756;28;20022;-80
2022/03/08 05:24:22;;;;;;;21.27;11.15;;;;;;;;;;5044572;28;20039;-81
2022/03/08 05:26:48;;;;;;;21.23;11.45;;;;;;;;;;5042607;28;20072;-81
2022/03/08 05:29:14;;;;;;;23.20;12.00;;;;;;;;;;5057555;28;20021;-81
2022/03/08 05:31:40;;;;;;;20.05;11.05;;;;;;;;;;5025142;28;20021;-81
2022/03/08 05:34:06;;;;;;;20.15;11.10;;;;;;;;;;5041217;28;20029;-80
2022/03/08 05:36:33;;;;;;;24.08;13.00;;;;;;;;;;5023592;28;20404;-81
2022/03/08 05:38:59;;;;;;;22.85;13.75;;;;;;;;;;5024123;28;20033;-81
2022/03/08 05:41:25;;;;;;;21.60;12.68;;;;;;;;;;5042738;28;20489;-81
2022/03/08 05:43:51;;;;;;;25.23;12.23;;;;;;;;;;5042566;28;20028;-81
2022/03/08 05:46:17;;;;;;;21.42;11.32;;;;;;;;;;5035892;28;20064;-81
2022/03/08 05:48:43;;;;;;;19.73;10.85;;;;;;;;;;5040230;28;20417;-81
2022/03/08 05:51:09;;;;;;;21.27;11.52;;;;;;;;;;5021986;28;20049;-80
2022/03/08 05:53:35;;;;;;;20.45;11.98;;;;;;;;;;5045660;28;20559;-80
2022/03/08 05:56:01;;;;;;;19.98;11.35;;;;;;;;;;5025094;28;20071;-81
2022/03/08 05:58:27;;;;;;;21.42;11.88;;;;;;;;;;5027394;28;20116;-81
2022/03/08 06:00:53;;;;;;;20.83;11.45;;;;;;;;;;5040954;28;20038;-81
2022/03/08 06:03:19;;;;;;;21.15;12.05;;;;;;;;;;5064654;28;20017;-80
2022/03/08 06:05:45;;;;;;;21.85;11.93;;;;;;;;;;5047977;28;20831;-80
2022/03/08 06:08:11;;;;;;;20.58;10.98;;;;;;;;;;5041933;28;20079;-80
2022/03/08 06:10:38;;;;;;;25.13;11.98;;;;;;;;;;5042331;28;20084;-81
2022/03/08 06:13:04;;;;;;;22.75;12.35;;;;;;;;;;5043488;28;20085;-81
2022/03/08 06:15:30;;;;;;;20.85;12.07;;;;;;;;;;5025547;28;20108;-81
2022/03/08 06:17:56;;;;;;;22.27;12.35;;;;;;;;;;5018229;28;20410;-81
2022/03/08 06:20:22;;;;;;;24.00;13.57;;;;;;;;;;5024677;28;20374;-81
2022/03/08 06:22:48;;;;;;;23.88;12.18;;;;;;;;;;5046399;28;20064;-80
2022/03/08 06:25:14;;;;;;;23.65;12.98;;;;;;;;;;5023590;28;20104;-81
2022/03/08 06:27:40;;;;;;;23.02;12.50;;;;;;;;;;5059846;28;20057;-81
2022/03/08 06:30:07;;;;;;;22.67;12.48;;;;;;;;;;5046024;28;20044;-81
2022/03/08 06:32:33;;;;;;;26.27;12.75;;;;;;;;;;5031800;28;20087;-81
2022/03/08 06:34:59;;;;;;;22.85;13.63;;;;;;;;;;5042724;28;20030;-81
2022/03/08 06:37:25;;;;;;;34.53;13.13;;;;;;;;;;5025813;28;20036;-81
2022/03/08 06:39:51;;;;;;;21.73;11.98;;;;;;;;;;5044707;28;20041;-81
2022/03/08 06:42:18;;;;;;;24.02;13.52;;;;;;;;;;5055291;28;20108;-80
2022/03/08 06:44:44;;;;;;;21.20;11.77;;;;;;;;;;5023911;28;20021;-81
2022/03/08 06:47:11;;;;;;;21.55;12.88;;;;;;;;;;5029196;28;20029;-81
2022/03/08 06:49:41;;;;;;;21.92;12.35;;;;;;;;;;5057433;28;20052;-81
2022/03/08 06:52:07;;;;;;;24.23;13.25;;;;;;;;;;5021315;28;20041;-81
2022/03/08 06:54:34;;;;;;;17.85;11.70;;;;;;;;;;5044247;28;20037;-81
2022/03/08 06:57:00;;;;;;;17.80;12.43;;;;;;;;;;5025969;28;20040;-81
2022/03/08 06:59:26;;;;;;;18.88;11.07;;;;;;;;;;5024940;28;20030;-81
2022/03/08 07:01:52;;;;;;;21.35;11.82;;;;;;;;;;5023748;28;20072;-81
2022/03/08 07:04:18;;;;;;;23.00;12.27;;;;;;;;;;5041129;28;20483;-82
2022/03/08 07:06:45;;;;;;;22.40;13.07;;;;;;;;;;5043311;28;20037;-82
2022/03/08 07:09:11;;;;;;;18.77;12.25;;;;;;;;;;5027993;28;20029;-81
2022/03/08 07:11:37;;;;;;;20.63;12.30;;;;;;;;;;5049043;28;20052;-82
2022/03/08 07:14:04;;;;;;;21.08;12.00;;;;;;;;;;5033205;28;20045;-81
2022/03/08 07:16:30;;;;;;;22.35;13.35;;;;;;;;;;5032961;28;20400;-81
2022/03/08 07:18:56;;;;;;;20.40;12.32;;;;;;;;;;5030462;28;20061;-81
2022/03/08 07:21:22;;;;;;;18.63;12.43;;;;;;;;;;5025003;28;20038;-82
2022/03/08 07:23:48;;;;;;;19.50;12.98;;;;;;;;;;5046030;28;20026;-82
2022/03/08 07:26:14;;;;;;;18.10;10.43;;;;;;;;;;5042062;28;20029;-81
2022/03/08 07:28:40;;;;;;;21.88;12.20;;;;;;;;;;5043565;28;20148;-82
2022/03/08 07:31:06;;;;;;;17.02;11.15;;;;;;;;;;5026152;28;20022;-81
2022/03/08 07:33:32;;;;;;;18.88;11.63;;;;;;;;;;5018695;28;20038;-82
2022/03/08 07:35:59;;;;;;;19.02;11.50;;;;;;;;;;5024994;28;20026;-81
2022/03/08 07:38:25;;;;;;;18.00;12.00;;;;;;;;;;5025661;28;20052;-81
2022/03/08 07:40:51;;;;;;;18.52;11.15;;;;;;;;;;5025554;28;20136;-81
2022/03/08 07:43:17;;;;;;;18.45;10.98;;;;;;;;;;5017963;28;20033;-81
2022/03/08 07:45:44;;;;;;;14.93;10.90;;;;;;;;;;5044777;28;20099;-82
2022/03/08 07:48:10;;;;;;;15.60;9.82;;;;;;;;;;5026459;28;20128;-81
2022/03/08 07:50:36;;;;;;;14.88;9.90;;;;;;;;;;5025993;28;20017;-82
2022/03/08 07:53:03;;;;;;;18.63;11.60;;;;;;;;;;5038900;28;20051;-82
2022/03/08 07:55:29;;;;;;;15.48;10.57;;;;;;;;;;5046077;28;20029;-81
2022/03/08 07:57:56;;;;;;;15.15;10.27;;;;;;;;;;5059249;28;20036;-82
2022/03/08 08:00:22;;;;;;;13.95;9.38;;;;;;;;;;5027926;28;20022;-81
2022/03/08 08:02:48;;;;;;;14.50;10.23;;;;;;;;;;5027319;28;20423;-82
2022/03/08 08:05:17;;;;;;;16.70;10.85;;;;;;;;;;5044180;28;20041;-81
2022/03/08 08:07:43;;;;;;;16.25;10.80;;;;;;;;;;5059476;28;20021;-82
2022/03/08 08:10:09;;;;;;;15.73;10.73;;;;;;;;;;5043011;28;20022;-82
2022/03/08 08:12:36;;;;;;;15.15;10.90;;;;;;;;;;5041889;28;20029;-81
2022/03/08 08:15:02;;;;;;;15.85;10.43;;;;;;;;;;5058937;28;20087;-83
2022/03/08 08:17:28;;;;;;;16.25;10.50;;;;;;;;;;5042840;28;20021;-83
2022/03/08 08:19:54;;;;;;;21.35;11.32;;;;;;;;;;5057361;28;20025;-82
2022/03/08 08:22:20;;;;;;;16.40;10.25;;;;;;;;;;5027401;28;20113;-82
2022/03/08 08:24:46;;;;;;;15.52;10.73;;;;;;;;;;5025802;28;20026;-82
2022/03/08 08:27:12;;;;;;;16.67;10.23;;;;;;;;;;5057306;28;20589;-82
2022/03/08 08:29:38;;;;;;;15.05;10.60;;;;;;;;;;5056259;28;20026;-82
2022/03/08 08:32:04;;;;;;;18.58;11.02;;;;;;;;;;5039854;28;20087;-82
2022/03/08 08:34:30;;;;;;;20.35;11.20;;;;;;;;;;5054321;28;20105;-82
2022/03/08 08:36:56;;;;;;;17.30;9.93;;;;;;;;;;5039645;28;20014;-82
2022/03/08 08:39:22;;;;;;;16.50;10.35;;;;;;;;;;5039410;28;20060;-82
2022/03/08 08:41:48;;;;;;;14.00;10.00;;;;;;;;;;5044416;28;20237;-81
2022/03/08 08:44:14;;;;;;;15.45;9.52;;;;;;;;;;5030328;28;20033;-82
2022/03/08 08:46:40;;;;;;;15.73;9.93;;;;;;;;;;5020725;28;20093;-81
2022/03/08 08:49:07;;;;;;;17.58;10.68;;;;;;;;;;5053169;28;20048;-81
2022/03/08 08:51:34;;;;;;;17.95;9.98;;;;;;;;;;5039864;28;20038;-82
2022/03/08 08:54:00;;;;;;;14.25;10.20;;;;;;;;;;5035249;28;20072;-81
2022/03/08 08:56:27;;;;;;;17.02;9.77;;;;;;;;;;5038006;28;20017;-81
2022/03/08 08:58:53;;;;;;;14.35;10.13;;;;;;;;;;5013205;28;20101;-82
2022/03/08 09:01:19;;;;;;;14.05;10.05;;;;;;;;;;5044817;28;20047;-82
2022/03/08 09:03:45;;;;;;;15.45;9.55;;;;;;;;;;5020068;28;20029;-82
2022/03/08 09:06:11;;;;;;;18.80;10.10;;;;;;;;;;5011948;28;20045;-82
2022/03/08 09:08:37;;;;;;;14.85;9.73;;;;;;;;;;5053760;28;20033;-82
2022/03/08 09:11:05;;;;;;;14.02;9.40;;;;;;;;;;5036543;28;20038;-81
2022/03/08 09:13:31;;;;;;;15.70;9.75;;;;;;;;;;5034827;28;20029;-82
2022/03/08 09:15:58;;;;;;;14.60;9.57;;;;;;;;;;5031740;28;20401;-83
2022/03/08 09:18:24;;;;;;;15.68;10.13;;;;;;;;;;5049654;28;20018;-81
2022/03/08 09:20:50;;;;;;;16.60;9.48;;;;;;;;;;5051648;28;20055;-81
2022/03/08 09:23:16;;;;;;;15.45;9.77;;;;;;;;;;5035626;28;20032;-81
2022/03/08 09:25:43;;;;;;;16.13;10.55;;;;;;;;;;5035671;28;20021;-81
2022/03/08 09:28:09;;;;;;;22.80;10.65;;;;;;;;;;5017030;28;20032;-82
2022/03/08 09:30:36;;;;;;;14.57;9.27;;;;;;;;;;5054123;28;20021;-81
2022/03/08 09:33:02;;;;;;;15.77;9.90;;;;;;;;;;5017804;28;20056;-81
2022/03/08 09:35:29;;;;;;;14.80;9.80;;;;;;;;;;5050776;28;20030;-81
2022/03/08 09:37:55;;;;;;;16.13;10.18;;;;;;;;;;5019487;28;20032;-82
2022/03/08 09:40:22;;;;;;;14.98;10.57;;;;;;;;;;5051941;28;20029;-81
2022/03/08 09:42:51;;;;;;;14.15;9.50;;;;;;;;;;5037456;28;20049;-82
2022/03/08 09:45:18;;;;;;;17.55;10.68;;;;;;;;;;5038386;28;20025;-82
2022/03/08 09:47:44;;;;;;;26.02;12.05;;;;;;;;;;5021751;28;20057;-81
2022/03/08 09:50:11;;;;;;;14.63;9.60;;;;;;;;;;5008993;28;20467;-81
2022/03/08 09:52:38;;;;;;;15.68;9.98;;;;;;;;;;5033416;28;20076;-82
2022/03/08 09:55:06;;;;;;;15.20;9.32;;;;;;;;;;5053678;28;20079;-82
2022/03/08 09:57:32;;;;;;;18.30;10.70;;;;;;;;;;5036766;28;20485;-81
2022/03/08 09:59:58;;;;;;;15.23;9.73;;;;;;;;;;5054319;28;20022;-82
2022/03/08 10:02:24;;;;;;;16.90;10.02;;;;;;;;;;5052972;28;20124;-82
2022/03/08 10:05:03;;;;;;;14.30;9.50;;;;;;;;;;5050620;28;20037;-82
2022/03/08 10:07:29;;;;;;;12.90;8.68;;;;;;;;;;5034618;28;20030;-81
2022/03/08 10:09:56;;;;;;;13.65;8.60;;;;;;;;;;5021182;28;20040;-82
2022/03/08 10:12:23;;;;;;;14.65;9.00;;;;;;;;;;5043472;28;20420;-81
2022/03/08 10:14:49;;;;;;;13.52;9.15;;;;;;;;;;5043736;28;20028;-82
2022/03/08 10:17:33;;;;;;;13.73;9.20;;;;;;;;;;5042525;28;20029;-82
2022/03/08 10:19:59;;;;;;;15.45;9.93;;;;;;;;;;5039735;28;20095;-80
2022/03/08 10:22:30;;;;;;;13.52;9.50;;;;;;;;;;5043375;28;20025;-82
2022/03/08 10:25:29;;;;;;;15.70;9.68;;;;;;;;;;5023471;28;20437;-83
2022/03/08 10:27:55;;;;;;;15.60;8.60;;;;;;;;;;4980378;28;20051;-81
2022/03/08 10:30:25;;;;;;;16.80;8.98;;;;;;;;;;4978990;28;20027;-81
2022/03/08 10:32:53;;;;;;;13.60;8.80;;;;;;;;;;4979681;28;20091;-81
2022/03/08 10:35:29;;;;;;;12.00;7.82;;;;;;;;;;4982462;28;20042;-82
2022/03/08 10:38:03;;;;;;;13.48;8.10;;;;;;;;;;4978127;28;20062;-82
2022/03/08 10:40:33;;;;;;;12.77;8.80;;;;;;;;;;4978316;28;20027;-82
2022/03/08 10:43:00;;;;;;;17.27;9.80;;;;;;;;;;4978724;28;20031;-82
2022/03/08 10:45:28;;;;;;;13.57;9.07;;;;;;;;;;4961517;28;20031;-82
2022/03/08 10:47:54;;;;;;;13.18;8.88;;;;;;;;;;4962509;28;20057;-83
2022/03/08 10:50:25;;;;;;;13.10;8.88;;;;;;;;;;4977941;28;20031;-82
2022/03/08 10:52:52;;;;;;;13.30;7.70;;;;;;;;;;4976578;28;20042;-82
2022/03/08 10:55:18;;;;;;;13.30;8.23;;;;;;;;;;4977319;28;20084;-81
2022/03/08 10:57:50;;;;;;;11.30;7.13;;;;;;;;;;4977809;28;20117;-81
2022/03/08 11:00:18;;;;;;;12.13;7.93;;;;;;;;;;4960757;28;20026;-80
2022/03/08 11:02:47;;;;;;;11.90;7.55;;;;;;;;;;4986766;28;20026;-82
2022/03/08 11:05:14;;;;;;;15.35;7.22;;;;;;;;;;5037970;28;20021;-81
2022/03/08 11:07:40;;;;;;;10.38;6.30;;;;;;;;;;5053878;28;20021;-82
2022/03/08 11:10:08;;;;;;;10.73;5.85;;;;;;;;;;5040407;28;20116;-81
2022/03/08 11:12:34;;;;;;;9.82;5.75;;;;;;;;;;5021824;28;20033;-81
2022/03/08 11:15:01;;;;;;;8.93;4.95;;;;;;;;;;5056319;28;20024;-82
2022/03/08 11:17:29;;;;;;;7.65;4.80;;;;;;;;;;5020988;28;20116;-82
2022/03/08 11:19:56;;;;;;;9.88;5.70;;;;;;;;;;5052841;28;20030;-81
2022/03/08 11:22:23;;;;;;;9.35;5.05;;;;;;;;;;5020137;28;20120;-81
2022/03/08 11:24:50;;;;;;;7.78;4.93;;;;;;;;;;5037265;28;20087;-82
2022/03/08 11:27:17;;;;;;;8.18;5.07;;;;;;;;;;5035623;28;20036;-81
2022/03/08 11:29:43;;;;;;;10.15;5.40;;;;;;;;;;5020023;28;20040;-82
2022/03/08 11:32:13;;;;;;;8.70;5.30;;;;;;;;;;5054921;28;20523;-83
2022/03/08 11:34:42;;;;;;;9.70;5.85;;;;;;;;;;5037249;28;20029;-81
2022/03/08 11:37:11;;;;;;;10.27;6.68;;;;;;;;;;5057363;28;20028;-80
2022/03/08 11:39:39;;;;;;;12.75;8.80;;;;;;;;;;5034839;28;20029;-81
2022/03/08 11:42:20;;;;;;;11.02;5.00;;;;;;;;;;5037631;28;20090;-81
2022/03/08 11:44:57;;;;;;;7.88;5.25;;;;;;;;;;5032908;28;20095;-81
2022/03/08 11:47:24;;;;;;;10.02;5.50;;;;;;;;;;5048708;28;20075;-81
2022/03/08 11:49:54;;;;;;;7.63;4.80;;;;;;;;;;5030627;28;20064;-81
2022/03/08 11:52:27;;;;;;;8.00;5.18;;;;;;;;;;5050180;28;20077;-80
2022/03/08 11:55:13;;;;;;;9.63;5.60;;;;;;;;;;5052767;28;20029;-82
2022/03/08 11:57:42;;;;;;;9.05;5.47;;;;;;;;;;5022662;28;20025;-82
2022/03/08 12:00:27;;;;;;;10.80;6.47;;;;;;;;;;5037007;28;20032;-81
2022/03/08 12:02:55;;;;;;;9.10;5.90;;;;;;;;;;5024689;28;20100;-83
2022/03/08 12:05:39;;;;;;;10.18;5.40;;;;;;;;;;5043360;28;20025;-82
2022/03/08 12:08:24;;;;;;;9.35;5.60;;;;;;;;;;5030268;28;20029;-84
2022/03/08 12:10:57;;;;;;;8.90;5.70;;;;;;;;;;5039800;28;20099;-82
2022/03/08 12:13:24;;;;;;;9.25;5.78;;;;;;;;;;5028882;28;20025;-81
2022/03/08 12:16:08;;;;;;;9.65;5.88;;;;;;;;;;5036783;28;20052;-82
2022/03/08 12:18:39;;;;;;;8.93;5.75;;;;;;;;;;5053971;28;20025;-83
2022/03/08 12:23:58;;;;;;;9.25;6.40;;;;;;;;;;5036569;28;20040;-83
2022/03/08 12:26:36;;;;;;;11.93;6.78;;;;;;;;;;5032777;28;20021;-82
2022/03/08 12:29:13;;;;;;;11.20;7.68;;;;;;;;;;5053393;28;20026;-80
2022/03/08 12:31:58;;;;;;;12.73;7.20;;;;;;;;;;5039675;28;20435;-81
2022/03/08 12:34:39;;;;;;;11.45;7.38;;;;;;;;;;5053539;28;20417;-81
2022/03/08 12:37:08;;;;;;;13.48;7.25;;;;;;;;;;5021037;28;20444;-80
2022/03/08 12:39:46;;;;;;;11.57;7.93;;;;;;;;;;5039117;28;20040;-81
2022/03/08 12:42:19;;;;;;;14.10;7.68;;;;;;;;;;5037360;28;20035;-80
2022/03/08 12:44:45;;;;;;;;;;;;;;;;;;5053723;28;20041;-81
2022/03/08 12:47:11;;;;;;;12.50;7.90;;;;;;;;;;5035441;28;19913;-80
2022/03/08 12:49:37;;;;;;;11.23;7.28;;;;;;;;;;5017286;28;20025;-80
2022/03/08 12:52:06;;;;;;;12.32;7.68;;;;;;;;;;5019179;28;20513;-80
2022/03/08 12:54:33;;;;;;;13.90;7.85;;;;;;;;;;5036261;28;20034;-80
2022/03/08 12:57:00;;;;;;;10.75;7.50;;;;;;;;;;5043176;28;20497;-82
2022/03/08 12:59:26;;;;;;;13.07;8.00;;;;;;;;;;5008773;28;20080;-81
2022/03/08 13:01:52;;;;;;;10.73;7.25;;;;;;;;;;5040949;28;20041;-80
2022/03/08 13:04:25;;;;;;;12.65;8.63;;;;;;;;;;5037024;28;20036;-82
2022/03/08 13:07:05;;;;;;;9.68;6.65;;;;;;;;;;5022126;28;20029;-84
2022/03/08 13:09:48;;;;;;;11.00;7.18;;;;;;;;;;5019053;28;20029;-81
2022/03/08 13:12:17;;;;;;;11.50;7.32;;;;;;;;;;5042531;28;20041;-80
2022/03/08 13:14:43;;;;;;;10.40;6.97;;;;;;;;;;5053281;28;20040;-81
2022/03/08 13:17:09;;;;;;;11.15;7.13;;;;;;;;;;5052361;28;20024;-81
2022/03/08 13:19:39;;;;;;;11.93;7.22;;;;;;;;;;5053593;28;20018;-81
2022/03/08 13:22:05;;;;;;;9.48;6.70;;;;;;;;;;5051144;28;20022;-80
2022/03/08 13:24:31;;;;;;;16.83;10.05;;;;;;;;;;5033468;28;20094;-79
2022/03/08 13:27:02;;;;;;;14.45;8.65;;;;;;;;;;5033314;28;20426;-80
2022/03/08 13:29:28;;;;;;;11.68;7.72;;;;;;;;;;5016942;28;20160;-79
2022/03/08 13:31:54;;;;;;;22.52;18.10;;;;;;;;;;5033134;28;20065;-79
2022/03/08 13:34:20;;;;;;;11.30;8.23;;;;;;;;;;5016922;28;20022;-79
2022/03/08 13:36:54;;;;;;;11.25;7.53;;;;;;;;;;5037356;28;20036;-80
2022/03/08 13:39:20;;;;;;;10.13;6.68;;;;;;;;;;5038354;28;20036;-81
2022/03/08 13:41:46;;;;;;;11.43;6.50;;;;;;;;;;5041001;28;20048;-80
2022/03/08 13:44:13;;;;;;;11.60;7.35;;;;;;;;;;5038836;28;20032;-80
2022/03/08 13:46:41;;;;;;;12.40;8.90;;;;;;;;;;5035084;28;20022;-80
2022/03/08 13:49:08;;;;;;;11.88;6.90;;;;;;;;;;5036879;28;20085;-80
2022/03/08 13:51:36;;;;;;;10.75;7.30;;;;;;;;;;5036620;28;20076;-79
2022/03/08 13:54:06;;;;;;;12.45;7.65;;;;;;;;;;5036640;28;20049;-80
2022/03/08 13:56:41;;;;;;;12.68;7.60;;;;;;;;;;5036962;28;20180;-81
2022/03/08 13:59:07;;;;;;;12.98;7.50;;;;;;;;;;5054827;28;20497;-80
2022/03/08 14:01:33;;;;;;;10.85;6.63;;;;;;;;;;5037272;28;20022;-80
2022/03/08 14:04:00;;;;;;;10.98;6.50;;;;;;;;;;5037359;28;20389;-80
2022/03/08 14:06:31;;;;;;;9.85;6.68;;;;;;;;;;5038435;28;20033;-80
2022/03/08 14:08:58;;;;;;;10.38;6.70;;;;;;;;;;5037070;28;20029;-80
2022/03/08 14:11:25;;;;;;;11.18;7.65;;;;;;;;;;5036420;28;20472;-80
2022/03/08 14:13:52;;;;;;;11.93;6.65;;;;;;;;;;5036429;28;20082;-80
2022/03/08 14:16:18;;;;;;;10.80;7.65;;;;;;;;;;5035952;28;20029;-80
2022/03/08 14:18:48;;;;;;;10.23;6.60;;;;;;;;;;5035376;28;20049;-80
2022/03/08 14:21:23;;;;;;;11.95;7.28;;;;;;;;;;5035174;28;20037;-80
2022/03/08 14:23:49;;;;;;;11.32;7.30;;;;;;;;;;5036297;28;20047;-80
2022/03/08 14:26:16;;;;;;;11.77;8.18;;;;;;;;;;5035293;28;20033;-79
2022/03/08 14:28:43;;;;;;;10.55;7.38;;;;;;;;;;5035810;28;20063;-80
2022/03/08 14:31:16;;;;;;;13.10;8.10;;;;;;;;;;5037551;28;20034;-79
2022/03/08 14:33:42;;;;;;;;;;;;;;;;;;5021002;28;20296;-80
2022/03/08 14:36:08;;;;;;;12.43;7.63;;;;;;;;;;5037863;28;20265;-80